createdAt,value
2022-12-06T00:00:08.442Z,0.86
2022-12-06T00:02:40.402Z,0.78
2022-12-06T00:05:09.044Z,0.73
2022-12-06T00:07:39.671Z,0.79
2022-12-06T00:10:08.898Z,0.73
2022-12-06T00:12:36.850Z,0.69
2022-12-06T00:15:05.121Z,0.66
2022-12-06T00:17:33.036Z,0.65
2022-12-06T00:20:01.081Z,0.64
2022-12-06T00:22:29.253Z,0.57
2022-12-06T00:24:58.425Z,0.54
2022-12-06T00:27:26.338Z,0.37
2022-12-06T00:29:54.158Z,0.53
2022-12-06T00:32:22.048Z,0.47
2022-12-06T00:34:50.026Z,0.47
2022-12-06T00:37:17.944Z,0.22
2022-12-06T00:39:45.809Z,0.37
2022-12-06T00:42:15.139Z,0.36
2022-12-06T00:44:43.023Z,0.35
2022-12-06T00:47:11.139Z,0.33
2022-12-06T00:49:38.958Z,0.50
2022-12-06T00:52:06.809Z,0.51
2022-12-06T00:54:34.678Z,0.47
2022-12-06T00:57:02.645Z,0.40
2022-12-06T00:59:31.888Z,0.39
2022-12-06T01:01:59.733Z,0.49
2022-12-06T01:04:27.643Z,0.46
2022-12-06T01:06:55.493Z,0.49
2022-12-06T01:09:23.473Z,0.50
2022-12-06T01:11:51.707Z,0.34
2022-12-06T01:14:19.522Z,0.44
2022-12-06T01:16:48.649Z,0.40
2022-12-06T01:19:16.535Z,0.62
2022-12-06T01:21:44.268Z,0.61
2022-12-06T01:24:11.988Z,0.61
2022-12-06T01:26:39.726Z,0.57
2022-12-06T01:29:07.462Z,0.55
2022-12-06T01:31:38.658Z,0.47
2022-12-06T01:34:09.276Z,0.33
2022-12-06T01:36:37.060Z,0.29
2022-12-06T01:39:10.339Z,0.27
2022-12-06T01:41:39.421Z,0.20
2022-12-06T01:44:08.144Z,0.18
2022-12-06T01:46:40.624Z,0.12
2022-12-06T01:49:18.255Z,0.08
2022-12-06T01:51:50.349Z,0.03
2022-12-06T01:54:21.870Z,-0.03
2022-12-06T01:56:51.863Z,-0.04
2022-12-06T01:59:20.920Z,-0.11
2022-12-06T02:01:49.755Z,-0.27
2022-12-06T02:04:20.259Z,-0.16
2022-12-06T02:06:48.741Z,-0.40
2022-12-06T02:09:17.910Z,-0.25
2022-12-06T02:11:47.263Z,-0.29
2022-12-06T02:14:18.982Z,-0.26
2022-12-06T02:17:04.383Z,-0.39
2022-12-06T02:19:55.458Z,-0.21
2022-12-06T02:22:34.103Z,-0.17
2022-12-06T02:25:18.263Z,-0.16
2022-12-06T02:28:19.358Z,-0.03
2022-12-06T02:30:55.346Z,-0.04
2022-12-06T02:33:29.761Z,0.04
2022-12-06T02:36:05.508Z,0.04
2022-12-06T02:38:37.242Z,0.03
2022-12-06T02:41:08.989Z,0.27
2022-12-06T02:43:41.808Z,0.40
2022-12-06T02:46:14.329Z,0.46
2022-12-06T02:48:44.301Z,0.22
2022-12-06T02:51:16.189Z,0.25
2022-12-06T02:53:48.658Z,0.19
2022-12-06T02:56:18.286Z,0.12
2022-12-06T02:58:45.992Z,0.13
2022-12-06T03:01:17.427Z,0.11
2022-12-06T03:03:58.527Z,0.17
2022-12-06T03:06:43.829Z,0.19
2022-12-06T03:09:24.423Z,0.13
2022-12-06T03:12:09.326Z,0.11
2022-12-06T03:14:46.749Z,0.10
2022-12-06T03:17:24.152Z,0.08
2022-12-06T03:19:59.272Z,0.06
2022-12-06T03:22:38.213Z,0.03
2022-12-06T03:25:10.388Z,-0.06
2022-12-06T03:27:40.521Z,-0.09
2022-12-06T03:30:12.395Z,-0.13
2022-12-06T03:32:44.798Z,-0.30
2022-12-06T03:35:15.655Z,-0.22
2022-12-06T03:37:48.453Z,-0.30
2022-12-06T03:40:20.805Z,-0.45
2022-12-06T03:42:50.370Z,-0.27
2022-12-06T03:45:18.992Z,-0.21
2022-12-06T03:47:56.133Z,-0.18
2022-12-06T03:50:29.077Z,-0.38
2022-12-06T03:52:57.009Z,-0.24
2022-12-06T03:55:24.697Z,-0.19
2022-12-06T03:57:52.418Z,-0.29
2022-12-06T04:00:20.931Z,-0.20
2022-12-06T04:02:50.022Z,-0.19
2022-12-06T04:05:17.863Z,-0.23
2022-12-06T04:07:46.026Z,-0.44
2022-12-06T04:10:13.791Z,-0.38
2022-12-06T04:12:58.962Z,-0.40
2022-12-06T04:15:26.695Z,-0.48
2022-12-06T04:18:16.063Z,-0.46
2022-12-06T04:21:04.932Z,-0.57
2022-12-06T04:23:35.076Z,-0.57
2022-12-06T04:26:03.670Z,-0.66
2022-12-06T04:28:49.337Z,-0.69
2022-12-06T04:31:35.512Z,-0.71
2022-12-06T04:34:22.614Z,-0.80
2022-12-06T04:37:08.222Z,-0.82
2022-12-06T04:39:36.239Z,-0.81
2022-12-06T04:42:21.890Z,-0.87
2022-12-06T04:44:49.626Z,-0.94
2022-12-06T04:47:17.825Z,-0.91
2022-12-06T04:49:47.061Z,-0.91
2022-12-06T04:52:15.196Z,-0.87
2022-12-06T04:54:43.362Z,-0.96
2022-12-06T04:57:13.603Z,-1.01
2022-12-06T04:59:42.939Z,-1.07
2022-12-06T05:02:13.696Z,-1.02
2022-12-06T05:04:41.360Z,-1.12
2022-12-06T05:07:11.691Z,-1.05
2022-12-06T05:09:39.871Z,-1.08
2022-12-06T05:12:08.436Z,-1.08
2022-12-06T05:14:36.191Z,-1.14
2022-12-06T05:17:04.255Z,-1.15
2022-12-06T05:19:32.030Z,-1.23
2022-12-06T05:22:00.043Z,-1.28
2022-12-06T05:24:29.065Z,-1.24
2022-12-06T05:26:56.786Z,-1.26
2022-12-06T05:29:24.567Z,-1.28
2022-12-06T05:31:52.607Z,-1.45
2022-12-06T05:34:20.434Z,-1.61
2022-12-06T05:36:48.415Z,-1.60
2022-12-06T05:39:16.997Z,-1.31
2022-12-06T05:41:47.197Z,-1.50
2022-12-06T05:44:14.888Z,-1.34
2022-12-06T05:46:42.603Z,-1.30
2022-12-06T05:49:10.492Z,-1.32
2022-12-06T05:51:38.196Z,-1.34
2022-12-06T05:54:06.756Z,-1.48
2022-12-06T05:56:34.701Z,-1.35
2022-12-06T05:59:04.281Z,-1.59
2022-12-06T06:01:32.193Z,-1.50
2022-12-06T06:03:59.896Z,-1.30
2022-12-06T06:06:27.640Z,-1.30
2022-12-06T06:08:55.736Z,-1.31
2022-12-06T06:11:23.567Z,-1.32
2022-12-06T06:13:54.544Z,-1.33
2022-12-06T06:16:23.702Z,-1.23
2022-12-06T06:18:51.537Z,-1.35
2022-12-06T06:21:19.277Z,-1.22
2022-12-06T06:23:47.067Z,-1.21
2022-12-06T06:26:14.783Z,-1.23
2022-12-06T06:28:42.493Z,-1.34
2022-12-06T06:31:10.230Z,-1.31
2022-12-06T06:33:39.333Z,-1.15
2022-12-06T06:36:07.798Z,-1.02
2022-12-06T06:38:35.510Z,-1.16
2022-12-06T06:41:03.424Z,-0.98
2022-12-06T06:43:31.215Z,-1.00
2022-12-06T06:46:01.216Z,-0.91
2022-12-06T06:48:31.168Z,-0.94
2022-12-06T06:51:04.342Z,-0.93
2022-12-06T06:53:32.176Z,-0.93
2022-12-06T06:55:59.900Z,-0.87
2022-12-06T06:58:27.862Z,-0.84
2022-12-06T07:00:57.084Z,-0.79
2022-12-06T07:03:25.785Z,-0.76
2022-12-06T07:05:54.027Z,-0.74
2022-12-06T07:08:24.601Z,-0.70
2022-12-06T07:10:52.711Z,-0.73
2022-12-06T07:13:22.361Z,-0.81
2022-12-06T07:15:50.859Z,-0.67
2022-12-06T07:18:19.220Z,-0.72
2022-12-06T07:20:48.029Z,-0.60
2022-12-06T07:23:17.813Z,-0.82
2022-12-06T07:25:46.875Z,-0.53
2022-12-06T07:28:14.562Z,-0.61
2022-12-06T07:30:42.382Z,-0.56
2022-12-06T07:33:10.094Z,-0.50
2022-12-06T07:36:10.389Z,-0.52
2022-12-06T07:38:25.468Z,-0.45
2022-12-06T07:41:04.337Z,-0.41
2022-12-06T07:43:49.867Z,-0.46
2022-12-06T07:46:17.817Z,-0.47
2022-12-06T07:48:45.660Z,-0.74
2022-12-06T07:51:13.323Z,-0.80
2022-12-06T07:53:41.057Z,-0.72
2022-12-06T07:56:10.631Z,-0.69
2022-12-06T07:58:38.386Z,-0.71
2022-12-06T08:01:06.436Z,-0.63
2022-12-06T08:04:05.295Z,-0.49
2022-12-06T08:06:34.124Z,-0.41
2022-12-06T08:09:02.026Z,-0.33
2022-12-06T08:11:31.102Z,-0.18
2022-12-06T08:13:59.167Z,-0.04
2022-12-06T08:16:26.924Z,0.17
2022-12-06T08:18:54.647Z,0.32
2022-12-06T08:21:22.324Z,0.39
2022-12-06T08:23:49.981Z,0.46
2022-12-06T08:26:18.663Z,0.44
2022-12-06T08:28:48.142Z,0.45
2022-12-06T08:31:17.989Z,0.39
2022-12-06T08:33:46.249Z,0.42
2022-12-06T08:36:16.768Z,0.44
2022-12-06T08:38:44.578Z,0.53
2022-12-06T08:41:26.508Z,0.64
2022-12-06T08:43:55.753Z,0.76
2022-12-06T08:46:24.002Z,0.73
2022-12-06T08:48:52.404Z,0.74
2022-12-06T08:51:20.102Z,0.89
2022-12-06T08:53:47.806Z,1.03
2022-12-06T08:56:15.730Z,1.33
2022-12-06T08:58:43.467Z,1.20
2022-12-06T09:01:14.757Z,1.14
2022-12-06T09:03:42.467Z,1.19
2022-12-06T09:06:11.116Z,1.18
2022-12-06T09:08:39.397Z,1.27
2022-12-06T09:11:08.405Z,1.31
2022-12-06T09:13:37.013Z,1.34
2022-12-06T09:16:07.357Z,1.18
2022-12-06T09:18:36.724Z,1.11
2022-12-06T09:21:06.964Z,1.29
2022-12-06T09:23:34.739Z,1.26
2022-12-06T09:26:02.906Z,1.07
2022-12-06T09:28:31.416Z,1.31
2022-12-06T09:30:59.312Z,1.33
2022-12-06T09:33:27.632Z,1.39
2022-12-06T09:35:57.683Z,1.37
2022-12-06T09:38:29.020Z,1.32
2022-12-06T09:41:09.005Z,1.38
2022-12-06T09:43:47.699Z,1.52
2022-12-06T09:46:39.475Z,1.60
2022-12-06T09:49:28.249Z,1.40
2022-12-06T09:52:18.545Z,1.44
2022-12-06T09:55:03.622Z,1.63
2022-12-06T09:57:38.464Z,1.59
2022-12-06T10:00:11.816Z,1.61
2022-12-06T10:03:02.774Z,1.51
2022-12-06T10:05:42.089Z,1.57
2022-12-06T10:08:27.322Z,1.54
2022-12-06T10:11:03.992Z,1.42
2022-12-06T10:13:54.800Z,1.58
2022-12-06T10:16:37.999Z,1.57
2022-12-06T10:19:16.777Z,1.71
2022-12-06T10:21:56.534Z,1.69
2022-12-06T10:24:41.488Z,1.89
2022-12-06T10:27:12.022Z,1.90
2022-12-06T10:29:53.850Z,1.82
2022-12-06T10:32:36.555Z,1.83
2022-12-06T10:35:17.604Z,1.54
2022-12-06T10:37:58.210Z,1.79
2022-12-06T10:40:31.799Z,1.92
2022-12-06T10:43:04.522Z,1.82
2022-12-06T10:45:55.811Z,2.05
2022-12-06T10:48:33.905Z,2.05
2022-12-06T10:51:06.975Z,2.03
2022-12-06T10:53:41.918Z,1.96
2022-12-06T10:56:17.541Z,1.92
2022-12-06T10:58:52.831Z,1.88
2022-12-06T11:01:23.920Z,1.83
2022-12-06T11:03:59.780Z,1.79
2022-12-06T11:06:33.372Z,1.89
2022-12-06T11:09:06.983Z,1.80
2022-12-06T11:11:40.151Z,1.88
2022-12-06T11:14:19.513Z,2.08
2022-12-06T11:16:55.355Z,2.15
2022-12-06T11:19:30.854Z,2.18
2022-12-06T11:22:05.528Z,2.13
2022-12-06T11:24:39.095Z,2.04
2022-12-06T11:27:15.946Z,2.03
2022-12-06T11:29:44.522Z,2.06
2022-12-06T11:32:15.290Z,1.96
2022-12-06T11:34:47.192Z,1.94
2022-12-06T11:37:18.581Z,1.96
2022-12-06T11:39:47.517Z,2.09
2022-12-06T11:42:20.401Z,2.05
2022-12-06T11:44:56.012Z,2.04
2022-12-06T11:47:24.048Z,2.17
2022-12-06T11:49:54.724Z,2.21
2022-12-06T11:52:29.964Z,2.19
2022-12-06T11:55:00.216Z,2.11
2022-12-06T11:57:34.065Z,2.08
2022-12-06T12:00:12.241Z,2.08
2022-12-06T12:02:45.617Z,2.01
2022-12-06T12:05:20.557Z,2.00
2022-12-06T12:07:51.628Z,2.06
2022-12-06T12:10:38.198Z,2.03
2022-12-06T12:13:40.063Z,2.03
2022-12-06T12:16:16.265Z,2.15
2022-12-06T12:18:52.212Z,2.28
2022-12-06T12:21:32.367Z,2.28
2022-12-06T12:24:00.547Z,2.25
2022-12-06T12:26:38.924Z,2.29
2022-12-06T12:29:17.248Z,2.13
2022-12-06T12:31:54.438Z,2.15
2022-12-06T12:34:23.444Z,2.05
2022-12-06T12:36:53.316Z,2.05
2022-12-06T12:39:27.599Z,2.18
2022-12-06T12:41:55.295Z,2.13
2022-12-06T12:44:42.889Z,2.05
2022-12-06T12:47:19.536Z,2.03
2022-12-06T12:50:02.067Z,2.08
2022-12-06T12:52:32.315Z,2.03
2022-12-06T12:55:02.312Z,2.05
2022-12-06T12:57:30.382Z,2.01
2022-12-06T12:59:59.491Z,1.74
2022-12-06T13:02:30.796Z,1.99
2022-12-06T13:05:31.433Z,2.02
2022-12-06T13:07:53.082Z,1.92
2022-12-06T13:10:28.030Z,2.02
2022-12-06T13:12:59.532Z,2.01
2022-12-06T13:15:35.093Z,1.94
2022-12-06T13:18:11.190Z,1.94
2022-12-06T13:20:39.121Z,1.94
2022-12-06T13:23:12.398Z,2.03
2022-12-06T13:25:40.332Z,2.11
2022-12-06T13:28:16.698Z,2.13
2022-12-06T13:30:47.849Z,2.06
2022-12-06T13:33:21.335Z,2.14
2022-12-06T13:35:55.397Z,2.09
2022-12-06T13:38:27.163Z,2.02
2022-12-06T13:40:56.373Z,2.07
2022-12-06T13:44:00.440Z,2.03
2022-12-06T13:46:34.529Z,1.93
2022-12-06T13:49:24.730Z,1.84
2022-12-06T13:51:52.899Z,2.05
2022-12-06T13:54:32.417Z,2.07
2022-12-06T13:57:03.940Z,1.73
2022-12-06T13:59:49.647Z,2.04
2022-12-06T14:02:52.403Z,1.95
2022-12-06T14:08:35.763Z,2.04
2022-12-06T14:11:28.303Z,2.00
2022-12-06T14:14:03.964Z,2.07
2022-12-06T14:16:36.607Z,2.05
2022-12-06T14:19:15.867Z,2.02
2022-12-06T14:21:45.463Z,2.05
2022-12-06T14:24:31.613Z,2.01
2022-12-06T14:27:07.791Z,1.98
2022-12-06T14:29:35.947Z,1.96
2022-12-06T14:32:03.845Z,1.96
2022-12-06T14:34:35.416Z,1.75
2022-12-06T14:37:12.393Z,1.67
2022-12-06T14:39:40.157Z,1.92
2022-12-06T14:42:35.930Z,1.87
2022-12-06T14:45:04.290Z,1.90
2022-12-06T14:47:33.172Z,1.87
2022-12-06T14:50:21.035Z,1.83
2022-12-06T14:53:04.188Z,1.84
2022-12-06T14:55:34.361Z,1.73
2022-12-06T14:58:04.861Z,1.72
2022-12-06T15:00:37.757Z,1.62
2022-12-06T15:03:25.418Z,1.46
2022-12-06T15:06:14.606Z,1.78
2022-12-06T15:08:44.276Z,1.69
2022-12-06T15:11:50.878Z,1.61
2022-12-06T15:14:21.995Z,1.60
2022-12-06T15:16:59.018Z,1.71
2022-12-06T15:19:27.659Z,1.71
2022-12-06T15:21:56.859Z,1.83
2022-12-06T15:24:26.405Z,1.69
2022-12-06T15:26:54.707Z,1.68
2022-12-06T15:29:22.684Z,1.68
2022-12-06T15:31:54.756Z,1.52
2022-12-06T15:34:25.761Z,1.51
2022-12-06T15:37:15.122Z,1.76
2022-12-06T15:39:43.948Z,1.74
2022-12-06T15:42:17.655Z,1.63
2022-12-06T15:45:01.036Z,1.70
2022-12-06T15:47:29.259Z,1.67
2022-12-06T15:49:58.226Z,1.42
2022-12-06T15:52:27.458Z,1.62
2022-12-06T15:54:57.584Z,1.64
2022-12-06T15:57:26.381Z,1.74
2022-12-06T15:59:54.109Z,1.62
2022-12-06T16:02:21.883Z,1.56
2022-12-06T16:04:51.239Z,0.68
2022-12-06T16:07:19.645Z,0.56
2022-12-06T16:09:48.115Z,1.50
2022-12-06T16:12:17.272Z,1.54
2022-12-06T16:14:45.010Z,1.45
2022-12-06T16:17:12.953Z,1.50
2022-12-06T16:19:58.053Z,1.54
2022-12-06T16:22:45.759Z,1.57
2022-12-06T16:25:12.460Z,1.58
2022-12-06T16:27:41.519Z,1.50
2022-12-06T16:30:10.630Z,1.53
2022-12-06T16:32:38.459Z,1.51
2022-12-06T16:35:06.695Z,1.50
2022-12-06T16:37:34.426Z,1.55
2022-12-06T16:40:02.137Z,1.42
2022-12-06T16:42:29.949Z,1.59
2022-12-06T16:44:59.188Z,1.46
2022-12-06T16:49:53.681Z,1.07
2022-12-06T16:52:21.482Z,0.80
2022-12-06T16:54:50.228Z,1.41
2022-12-06T16:57:19.439Z,1.28
2022-12-06T16:59:47.159Z,1.44
2022-12-06T17:02:27.509Z,0.76
2022-12-06T17:04:55.691Z,1.39
2022-12-06T17:07:23.535Z,1.32
2022-12-06T17:09:51.310Z,0.89
2022-12-06T17:12:19.116Z,1.28
2022-12-06T17:14:47.162Z,1.52
2022-12-06T17:17:16.443Z,1.36
2022-12-06T17:19:45.665Z,1.48
2022-12-06T17:22:16.372Z,1.26
2022-12-06T17:24:44.426Z,1.37
2022-12-06T17:27:14.503Z,1.30
2022-12-06T17:29:48.215Z,0.63
2022-12-06T17:32:20.483Z,1.48
2022-12-06T17:34:49.624Z,1.39
2022-12-06T17:37:17.392Z,1.01
2022-12-06T17:39:45.149Z,1.47
2022-12-06T17:42:31.544Z,1.01
2022-12-06T17:45:00.787Z,1.73
2022-12-06T17:47:29.066Z,1.68
2022-12-06T17:49:58.441Z,1.60
2022-12-06T17:52:26.241Z,1.45
2022-12-06T17:54:53.999Z,0.60
2022-12-06T17:57:21.732Z,1.64
2022-12-06T17:59:49.563Z,1.54
2022-12-06T18:02:19.949Z,1.61
2022-12-06T18:04:48.407Z,1.83
2022-12-06T18:07:18.347Z,1.55
2022-12-06T18:09:46.571Z,1.66
2022-12-06T18:12:15.825Z,1.57
2022-12-06T18:14:43.678Z,1.72
2022-12-06T18:17:11.544Z,1.10
2022-12-06T18:19:40.300Z,1.23
2022-12-06T18:22:08.286Z,1.07
2022-12-06T18:24:37.576Z,1.54
2022-12-06T18:27:06.004Z,1.33
2022-12-06T18:29:34.464Z,1.61
2022-12-06T18:32:02.377Z,1.48
2022-12-06T18:34:30.338Z,1.51
2022-12-06T18:36:58.071Z,1.58
2022-12-06T18:39:27.946Z,1.64
2022-12-06T18:41:57.257Z,1.61
2022-12-06T18:44:25.368Z,1.54
2022-12-06T18:46:53.170Z,1.52
2022-12-06T18:49:20.982Z,1.15
2022-12-06T18:51:48.701Z,1.46
2022-12-06T18:54:16.466Z,0.87
2022-12-06T18:56:44.319Z,1.60
2022-12-06T18:59:13.578Z,1.65
2022-12-06T19:01:42.884Z,1.56
2022-12-06T19:04:14.655Z,1.54
2022-12-06T19:06:44.214Z,1.59
2022-12-06T19:09:14.335Z,1.44
2022-12-06T19:11:46.660Z,1.68
2022-12-06T19:14:17.990Z,1.63
2022-12-06T19:16:47.403Z,1.62
2022-12-06T19:19:17.743Z,1.45
2022-12-06T19:21:46.037Z,1.39
2022-12-06T19:24:16.512Z,1.58
2022-12-06T19:26:44.382Z,1.62
2022-12-06T19:29:12.220Z,1.60
2022-12-06T19:31:41.351Z,1.58
2022-12-06T19:34:15.681Z,1.66
2022-12-06T19:36:43.458Z,1.64
2022-12-06T19:39:11.958Z,1.58
2022-12-06T19:41:53.601Z,1.46
2022-12-06T19:44:21.416Z,1.62
2022-12-06T19:46:50.660Z,1.62
2022-12-06T19:49:21.372Z,1.74
2022-12-06T19:51:49.808Z,1.71
2022-12-06T19:54:19.861Z,1.81
2022-12-06T19:56:49.148Z,1.71
2022-12-06T19:59:16.997Z,1.60
2022-12-06T20:01:46.144Z,1.75
2022-12-06T20:04:17.339Z,1.69
2022-12-06T20:06:47.491Z,1.64
2022-12-06T20:09:15.489Z,1.81
2022-12-06T20:12:04.782Z,1.67
2022-12-06T20:14:37.765Z,1.68
2022-12-06T20:17:09.274Z,1.78
2022-12-06T20:19:38.799Z,1.73
2022-12-06T20:22:06.677Z,1.71
2022-12-06T20:24:44.742Z,0.54
2022-12-06T20:27:12.943Z,1.72
2022-12-06T20:29:40.917Z,1.71
2022-12-06T20:32:11.175Z,1.68
2022-12-06T20:34:40.444Z,1.64
2022-12-06T20:37:08.223Z,1.67
2022-12-06T20:39:36.682Z,1.58
2022-12-06T20:42:06.892Z,1.74
2022-12-06T20:44:36.607Z,1.77
2022-12-06T20:47:04.808Z,1.74
2022-12-06T20:49:32.634Z,1.76
2022-12-06T20:52:03.510Z,1.74
2022-12-06T20:54:32.120Z,1.63
2022-12-06T20:56:59.872Z,1.67
2022-12-06T20:59:29.257Z,1.65
2022-12-06T21:01:57.094Z,1.66
2022-12-06T21:04:25.919Z,1.51
2022-12-06T21:06:53.836Z,1.35
2022-12-06T21:09:23.221Z,1.62
2022-12-06T21:11:51.244Z,1.66
2022-12-06T21:14:19.415Z,1.71
2022-12-06T21:16:47.221Z,1.27
2022-12-06T21:19:17.746Z,1.35
2022-12-06T21:21:48.115Z,1.58
2022-12-06T21:24:18.507Z,1.55
2022-12-06T21:26:47.914Z,1.57
2022-12-06T21:29:17.466Z,1.05
2022-12-06T21:31:46.290Z,1.52
2022-12-06T21:34:15.474Z,1.57
2022-12-06T21:36:43.426Z,1.47
2022-12-06T21:39:11.324Z,1.52
2022-12-06T21:41:39.606Z,1.51
2022-12-06T21:44:08.820Z,1.43
2022-12-06T21:46:36.711Z,1.63
2022-12-06T21:49:04.485Z,1.05
2022-12-06T21:51:33.023Z,1.20
2022-12-06T21:54:01.431Z,1.26
2022-12-06T21:56:31.145Z,1.58
2022-12-06T21:59:01.150Z,1.45
2022-12-06T22:01:32.539Z,1.50
2022-12-06T22:04:03.046Z,1.57
2022-12-06T22:06:32.418Z,1.31
2022-12-06T22:09:02.110Z,1.46
2022-12-06T22:11:30.645Z,1.49
2022-12-06T22:14:01.307Z,1.54
2022-12-06T22:16:30.618Z,1.53
2022-12-06T22:18:58.830Z,0.97
2022-12-06T22:21:28.142Z,1.50
2022-12-06T22:23:57.883Z,1.42
2022-12-06T22:26:28.109Z,1.51
2022-12-06T22:28:56.240Z,1.52
2022-12-06T22:31:26.368Z,1.49
2022-12-06T22:33:56.942Z,1.43
2022-12-06T22:36:25.216Z,1.39
2022-12-06T22:38:54.294Z,1.46
2022-12-06T22:41:22.875Z,1.45
2022-12-06T22:43:51.895Z,1.44
2022-12-06T22:46:20.199Z,0.96
2022-12-06T22:48:48.702Z,1.26
2022-12-06T22:51:22.081Z,1.48
2022-12-06T22:53:54.156Z,1.52
2022-12-06T22:56:21.989Z,1.32
2022-12-06T22:58:49.847Z,1.37
2022-12-06T23:01:19.796Z,1.42
2022-12-06T23:03:49.976Z,1.27
2022-12-06T23:06:20.806Z,1.29
2022-12-06T23:08:48.741Z,0.95
2022-12-06T23:11:19.168Z,1.38
2022-12-06T23:13:47.349Z,1.39
2022-12-06T23:16:17.281Z,1.34
2022-12-06T23:18:45.518Z,1.39
2022-12-06T23:21:15.332Z,1.44
2022-12-06T23:23:47.196Z,1.36
2022-12-06T23:26:17.443Z,1.32
2022-12-06T23:28:46.107Z,1.17
2022-12-06T23:31:15.972Z,1.22
2022-12-06T23:33:44.612Z,1.29
2022-12-06T23:36:14.303Z,1.27
2022-12-06T23:38:44.094Z,0.63
2022-12-06T23:41:14.009Z,0.32
2022-12-06T23:43:42.587Z,1.10
2022-12-06T23:46:12.989Z,1.30
2022-12-06T23:48:40.802Z,1.23
2022-12-06T23:51:11.487Z,0.61
2022-12-06T23:53:40.062Z,1.16
2022-12-06T23:56:11.238Z,1.14
2022-12-06T23:58:39.508Z,1.18
